Time;durP1;ratioP1;P1;durP2;ratioP2;P2;SDS_P1;SDS_P2;PMS_P1;PMS_P2;Temp;Humidity;BMP_temperature;BMP_pressure;BME280_temperature;BME280_humidity;BME280_pressure;Samples;Min_cycle;Max_cycle;Signal;HPM_P1;HPM_P2
2023/04/27 00:00:43;;;;;;;6.95;5.30;;;9.00;70.00;;;;;;4992199;28;20030;-63
2023/04/27 00:03:09;;;;;;;6.55;4.82;;;9.00;70.40;;;;;;4991763;28;20038;-63
2023/04/27 00:05:35;;;;;;;6.85;5.07;;;8.90;70.60;;;;;;4992737;28;21160;-63
2023/04/27 00:08:01;;;;;;;5.70;4.57;;;8.80;70.80;;;;;;4992242;28;20038;-64
2023/04/27 00:10:27;;;;;;;6.93;4.50;;;8.80;71.10;;;;;;4992899;28;20520;-64
2023/04/27 00:12:53;;;;;;;5.43;4.35;;;8.70;71.30;;;;;;4992680;28;20070;-64
2023/04/27 00:15:18;;;;;;;6.90;4.55;;;8.70;71.70;;;;;;4992205;28;20480;-63
2023/04/27 00:17:44;;;;;;;6.68;4.80;;;8.70;71.90;;;;;;4990855;28;20042;-63
2023/04/27 00:20:11;;;;;;;6.82;4.28;;;8.70;72.10;;;;;;4995535;28;20223;-63
2023/04/27 00:22:38;;;;;;;7.90;4.80;;;8.60;72.00;;;;;;4993632;28;20180;-64
2023/04/27 00:25:04;;;;;;;5.35;4.55;;;8.60;72.10;;;;;;4994794;28;20498;-63
2023/04/27 00:27:29;;;;;;;7.97;4.80;;;8.60;72.30;;;;;;4993575;28;20092;-63
2023/04/27 00:29:55;;;;;;;6.75;4.55;;;8.60;72.40;;;;;;4993014;28;20034;-63
2023/04/27 00:32:21;;;;;;;6.40;4.20;;;8.60;72.50;;;;;;4996496;28;20085;-63
2023/04/27 00:34:47;;;;;;;5.90;4.30;;;8.50;72.60;;;;;;4994213;28;20046;-63
2023/04/27 00:37:12;;;;;;;5.55;4.50;;;8.50;72.80;;;;;;4992711;28;20029;-64
2023/04/27 00:39:38;;;;;;;7.47;4.68;;;8.50;73.20;;;;;;4994381;28;20366;-63
2023/04/27 00:42:04;;;;;;;7.30;4.30;;;8.50;73.40;;;;;;4992162;28;20037;-64
2023/04/27 00:44:29;;;;;;;5.25;4.32;;;8.50;74.20;;;;;;4995396;28;20034;-63
2023/04/27 00:46:56;;;;;;;5.13;4.20;;;8.50;73.30;;;;;;4997166;28;20072;-64
2023/04/27 00:49:23;;;;;;;6.63;4.43;;;8.50;73.40;;;;;;4995743;28;20484;-63
2023/04/27 00:51:48;;;;;;;6.35;4.43;;;8.50;73.50;;;;;;4995111;28;20489;-63
2023/04/27 00:54:20;;;;;;;8.93;4.93;;;8.50;73.50;;;;;;4991944;28;20080;-63
2023/04/27 00:56:49;;;;;;;6.88;4.93;;;8.50;73.70;;;;;;4993999;28;20045;-64
2023/04/27 00:59:16;;;;;;;6.40;4.70;;;8.60;73.70;;;;;;4994479;28;20062;-64
2023/04/27 01:01:41;;;;;;;7.25;5.00;;;8.50;73.40;;;;;;4997009;28;20042;-63
2023/04/27 01:04:07;;;;;;;5.13;4.60;;;8.60;73.50;;;;;;4992500;28;20081;-64
2023/04/27 01:06:32;;;;;;;10.68;4.63;;;8.50;73.30;;;;;;4995045;28;20403;-64
2023/04/27 01:08:58;;;;;;;7.50;4.18;;;8.50;73.40;;;;;;4991987;28;20118;-64
2023/04/27 01:11:24;;;;;;;6.63;4.30;;;8.50;73.50;;;;;;4993008;28;20026;-63
2023/04/27 01:13:50;;;;;;;5.82;4.82;;;8.50;73.50;;;;;;4992998;28;20304;-63
2023/04/27 01:16:19;;;;;;;10.13;5.28;;;8.50;73.40;;;;;;4991029;28;20126;-64
2023/04/27 01:18:46;;;;;;;8.02;4.85;;;8.50;73.40;;;;;;4992284;28;20302;-64
2023/04/27 01:21:11;;;;;;;5.88;4.32;;;8.50;73.20;;;;;;4995064;28;20030;-64
2023/04/27 01:23:37;;;;;;;8.38;4.20;;;8.40;73.10;;;;;;4991874;28;20466;-64
2023/04/27 01:26:02;;;;;;;7.75;4.35;;;8.40;73.10;;;;;;4994006;28;20076;-64
2023/04/27 01:28:28;;;;;;;9.63;4.32;;;8.40;73.20;;;;;;4992468;28;20397;-64
2023/04/27 01:30:54;;;;;;;4.93;4.15;;;8.30;73.20;;;;;;4992672;28;20152;-64
2023/04/27 01:33:20;;;;;;;6.47;4.50;;;8.20;73.20;;;;;;4994542;28;20581;-63
2023/04/27 01:35:45;;;;;;;7.38;4.50;;;8.20;73.20;;;;;;4992834;28;20039;-64
2023/04/27 01:38:11;;;;;;;8.57;4.40;;;8.20;73.20;;;;;;4994629;28;20070;-64
2023/04/27 01:40:37;;;;;;;6.53;4.43;;;8.10;73.20;;;;;;4988492;28;20068;-64
2023/04/27 01:43:03;;;;;;;7.82;4.88;;;8.10;73.20;;;;;;4992386;28;20038;-64
2023/04/27 01:45:28;;;;;;;22.67;10.02;;;8.00;73.20;;;;;;4992994;28;20044;-64
2023/04/27 01:47:54;;;;;;;47.95;16.15;;;8.00;73.20;;;;;;4996800;28;20041;-64
2023/04/27 01:50:20;;;;;;;35.95;13.00;;;8.00;73.30;;;;;;4989354;28;20060;-64
2023/04/27 01:52:46;;;;;;;29.77;11.43;;;7.90;73.60;;;;;;4999070;28;20066;-64
2023/04/27 01:55:11;;;;;;;21.67;8.48;;;7.80;73.80;;;;;;4996265;28;20112;-63
2023/04/27 01:57:37;;;;;;;14.65;7.25;;;7.80;74.00;;;;;;4996009;28;20397;-63
2023/04/27 02:00:04;;;;;;;11.57;5.47;;;7.70;74.20;;;;;;4997231;28;20057;-63
2023/04/27 02:02:30;;;;;;;7.97;4.70;;;7.60;74.30;;;;;;4995395;28;20085;-62
2023/04/27 02:04:55;;;;;;;9.55;4.18;;;7.60;74.50;;;;;;4994779;28;20568;-63
2023/04/27 02:07:21;;;;;;;7.68;4.32;;;7.50;74.60;;;;;;4993674;28;20129;-63
2023/04/27 02:09:46;;;;;;;6.15;3.90;;;7.50;74.70;;;;;;4997473;28;20409;-63
2023/04/27 02:12:12;;;;;;;6.10;3.58;;;7.50;74.90;;;;;;4997053;28;20030;-63
2023/04/27 02:14:37;;;;;;;5.30;3.70;;;7.40;74.90;;;;;;4996655;28;20157;-64
2023/04/27 02:17:03;;;;;;;5.72;3.65;;;7.40;75.10;;;;;;4995352;28;20041;-63
2023/04/27 02:19:28;;;;;;;6.10;3.45;;;7.40;75.40;;;;;;4996868;28;20096;-63
2023/04/27 02:21:54;;;;;;;5.78;3.85;;;7.30;75.40;;;;;;4997329;28;20111;-63
2023/04/27 02:24:20;;;;;;;4.55;3.65;;;7.30;75.40;;;;;;4996438;28;20065;-63
2023/04/27 02:26:45;;;;;;;4.75;3.65;;;7.30;75.40;;;;;;4997574;28;20049;-64
2023/04/27 02:29:11;;;;;;;5.30;3.63;;;7.20;75.40;;;;;;4996299;28;20614;-63
2023/04/27 02:31:36;;;;;;;5.70;3.60;;;7.20;75.60;;;;;;4995713;28;20330;-64
2023/04/27 02:34:02;;;;;;;6.60;3.72;;;7.20;75.80;;;;;;4995767;28;20035;-63
2023/04/27 02:36:28;;;;;;;4.60;3.75;;;7.20;75.90;;;;;;4993719;28;20120;-64
2023/04/27 02:38:54;;;;;;;8.95;3.83;;;7.10;76.00;;;;;;4997313;28;20042;-63
2023/04/27 02:41:19;;;;;;;7.07;3.75;;;7.10;76.10;;;;;;4997138;28;20033;-63
2023/04/27 02:43:46;;;;;;;7.57;3.83;;;7.10;76.20;;;;;;4997165;28;20034;-64
2023/04/27 02:46:12;;;;;;;5.38;3.85;;;7.20;76.10;;;;;;4999204;28;20046;-64
2023/04/27 02:48:38;;;;;;;7.07;3.83;;;7.10;76.10;;;;;;4999418;28;20038;-63
2023/04/27 02:51:04;;;;;;;6.18;3.95;;;7.10;76.10;;;;;;4998805;28;20034;-63
2023/04/27 02:53:29;;;;;;;5.13;3.83;;;7.10;76.20;;;;;;4994424;28;20039;-63
2023/04/27 02:55:57;;;;;;;5.93;4.15;;;7.10;76.30;;;;;;4997061;28;20037;-63
2023/04/27 02:58:22;;;;;;;5.68;3.85;;;7.10;76.30;;;;;;4994531;28;20309;-63
2023/04/27 03:00:56;;;;;;;7.10;3.70;;;7.10;76.30;;;;;;4993000;28;20629;-62
2023/04/27 03:03:22;;;;;;;5.25;3.90;;;7.10;76.50;;;;;;4994989;28;20045;-62
2023/04/27 03:05:48;;;;;;;5.20;3.65;;;7.10;76.30;;;;;;4993441;28;20042;-63
2023/04/27 03:08:14;;;;;;;6.18;4.05;;;7.10;76.30;;;;;;4993203;28;20037;-63
2023/04/27 03:10:39;;;;;;;7.50;4.00;;;7.10;76.20;;;;;;4994179;28;20042;-63
2023/04/27 03:13:05;;;;;;;5.60;4.07;;;7.20;76.30;;;;;;4999930;28;20031;-63
2023/04/27 03:15:31;;;;;;;5.95;3.60;;;7.20;76.20;;;;;;4993737;28;20038;-63
2023/04/27 03:17:56;;;;;;;5.03;3.97;;;7.10;76.30;;;;;;4993034;28;20100;-63
2023/04/27 03:20:22;;;;;;;7.65;3.90;;;7.10;76.40;;;;;;4994518;28;20042;-63
2023/04/27 03:22:47;;;;;;;5.93;3.80;;;7.10;76.60;;;;;;4994484;28;20397;-63
2023/04/27 03:25:13;;;;;;;5.90;4.03;;;7.10;76.70;;;;;;4992854;28;20033;-64
2023/04/27 03:27:39;;;;;;;6.75;4.35;;;7.20;76.80;;;;;;4989281;28;20041;-64
2023/04/27 03:30:06;;;;;;;6.75;4.50;;;7.20;76.70;;;;;;4991396;28;20037;-64
2023/04/27 03:32:31;;;;;;;7.13;4.50;;;7.20;76.60;;;;;;4995381;28;20422;-63
2023/04/27 03:34:57;;;;;;;7.80;4.80;;;7.20;76.60;;;;;;4992738;28;20049;-64
2023/04/27 03:37:23;;;;;;;11.48;5.60;;;7.30;76.70;;;;;;4996224;28;20121;-63
2023/04/27 03:39:48;;;;;;;7.95;4.82;;;7.30;76.90;;;;;;4991808;28;20506;-63
2023/04/27 03:42:14;;;;;;;5.45;4.47;;;7.30;76.90;;;;;;4994792;28;20093;-63
2023/04/27 03:44:39;;;;;;;5.97;4.53;;;7.30;77.00;;;;;;4993941;28;20116;-64
2023/04/27 03:47:08;;;;;;;5.95;4.50;;;7.30;77.10;;;;;;4993975;28;20030;-63
2023/04/27 03:49:34;;;;;;;7.07;4.50;;;7.30;77.20;;;;;;4993523;28;20034;-64
2023/04/27 03:51:59;;;;;;;7.82;4.68;;;7.30;77.00;;;;;;4994234;28;20037;-63
2023/04/27 03:54:25;;;;;;;6.82;4.63;;;7.40;77.20;;;;;;4995448;28;20038;-64
2023/04/27 03:56:52;;;;;;;7.88;5.00;;;7.40;77.20;;;;;;4992333;28;20133;-63
2023/04/27 03:59:17;;;;;;;6.75;5.18;;;7.40;77.20;;;;;;4991316;28;20109;-64
2023/04/27 04:01:43;;;;;;;7.55;4.55;;;7.50;77.30;;;;;;4993694;28;20481;-62
2023/04/27 04:04:08;;;;;;;7.32;5.20;;;7.50;77.20;;;;;;4990789;28;20033;-63
2023/04/27 04:06:35;;;;;;;7.20;5.28;;;7.50;77.20;;;;;;4991346;28;20459;-64
2023/04/27 04:09:01;;;;;;;7.70;5.63;;;7.60;77.30;;;;;;4993703;28;20038;-64
2023/04/27 04:11:27;;;;;;;8.52;6.15;;;7.60;77.30;;;;;;4993133;28;20576;-64
2023/04/27 04:13:52;;;;;;;7.80;5.22;;;7.60;77.30;;;;;;4994691;28;20087;-64
2023/04/27 04:16:18;;;;;;;10.35;4.97;;;7.70;77.10;;;;;;4992662;28;20022;-63
2023/04/27 04:18:43;;;;;;;9.80;5.22;;;7.70;77.00;;;;;;4990157;28;20038;-63
2023/04/27 04:21:10;;;;;;;9.00;6.38;;;7.70;76.90;;;;;;4994482;28;20049;-63
2023/04/27 04:23:36;;;;;;;9.75;5.72;;;7.70;76.80;;;;;;4992680;28;20042;-61
2023/04/27 04:26:02;;;;;;;9.75;5.20;;;7.70;76.80;;;;;;4993110;28;20537;-63
2023/04/27 04:28:28;;;;;;;9.80;5.13;;;7.80;77.60;;;;;;4990968;28;20069;-63
2023/04/27 04:30:54;;;;;;;6.30;4.80;;;7.80;76.60;;;;;;4993345;28;20038;-63
2023/04/27 04:33:20;;;;;;;8.18;5.10;;;7.80;76.80;;;;;;4991075;28;20120;-62
2023/04/27 04:35:45;;;;;;;7.22;5.30;;;7.80;76.90;;;;;;4990221;28;20042;-62
2023/04/27 04:38:11;;;;;;;10.15;5.25;;;7.80;76.80;;;;;;4983742;28;21164;-63
2023/04/27 04:40:38;;;;;;;52.90;31.42;;;7.90;77.00;;;;;;4990161;28;20069;-62
2023/04/27 04:43:04;;;;;;;34.47;22.52;;;7.90;76.90;;;;;;4993469;28;20474;-61
2023/04/27 04:45:29;;;;;;;15.20;10.45;;;8.00;77.00;;;;;;4990260;28;20584;-63
2023/04/27 04:47:55;;;;;;;37.45;24.58;;;8.00;76.90;;;;;;4991894;28;20074;-63
2023/04/27 04:50:22;;;;;;;15.25;10.52;;;8.10;77.00;;;;;;4991739;28;20040;-64
2023/04/27 04:52:48;;;;;;;10.65;7.07;;;8.10;76.80;;;;;;4993360;28;20524;-63
2023/04/27 04:55:13;;;;;;;8.65;5.68;;;8.20;77.00;;;;;;4993472;28;20045;-63
2023/04/27 04:57:39;;;;;;;7.57;5.20;;;8.20;76.80;;;;;;4992542;28;20033;-64
2023/04/27 05:00:10;;;;;;;6.57;5.43;;;8.20;76.80;;;;;;4993464;28;20092;-64
2023/04/27 05:02:35;;;;;;;10.15;5.55;;;8.30;76.60;;;;;;4991858;28;20399;-63
2023/04/27 05:05:01;;;;;;;6.68;5.60;;;8.30;76.50;;;;;;4991684;28;20690;-64
2023/04/27 05:07:26;;;;;;;11.35;5.93;;;8.30;76.50;;;;;;4992921;28;20117;-63
2023/04/27 05:09:52;;;;;;;10.00;5.45;;;8.40;76.60;;;;;;4994308;28;20494;-64
2023/04/27 05:12:17;;;;;;;10.50;6.10;;;8.40;76.60;;;;;;4992747;28;20026;-63
2023/04/27 05:14:43;;;;;;;12.00;8.10;;;8.40;76.60;;;;;;4992427;28;20050;-63
2023/04/27 05:17:09;;;;;;;9.40;6.15;;;8.50;76.60;;;;;;4992561;28;20413;-64
2023/04/27 05:19:34;;;;;;;8.77;5.45;;;8.50;77.50;;;;;;4993465;28;20080;-64
2023/04/27 05:22:00;;;;;;;9.40;5.18;;;8.50;76.50;;;;;;4995183;28;20052;-64
2023/04/27 05:24:26;;;;;;;6.85;4.60;;;8.50;76.20;;;;;;4997517;28;20573;-63
2023/04/27 05:26:51;;;;;;;7.93;4.80;;;8.60;76.30;;;;;;4996604;28;20042;-64
2023/04/27 05:29:17;;;;;;;8.35;5.43;;;8.60;76.10;;;;;;4995777;28;20048;-63
2023/04/27 05:31:42;;;;;;;6.80;4.80;;;8.60;76.00;;;;;;4994494;28;20069;-64
2023/04/27 05:34:08;;;;;;;8.23;5.70;;;8.70;75.90;;;;;;4995032;28;20465;-64
2023/04/27 05:36:34;;;;;;;8.98;5.35;;;8.70;75.90;;;;;;4996164;28;20026;-64
2023/04/27 05:39:01;;;;;;;10.27;4.95;;;8.70;75.90;;;;;;4996437;28;20038;-63
2023/04/27 05:41:28;;;;;;;7.78;5.30;;;8.70;75.90;;;;;;4997909;28;20265;-63
2023/04/27 05:43:53;;;;;;;7.88;5.15;;;8.80;76.00;;;;;;4997738;28;20077;-64
2023/04/27 05:46:20;;;;;;;10.13;5.20;;;8.80;75.80;;;;;;4994922;28;20490;-63
2023/04/27 05:48:45;;;;;;;13.45;5.80;;;8.90;76.00;;;;;;4996304;28;20137;-63
2023/04/27 05:51:11;;;;;;;9.00;5.38;;;8.90;76.30;;;;;;4996039;28;20176;-64
2023/04/27 05:53:37;;;;;;;8.07;5.43;;;9.00;76.30;;;;;;4995256;28;20033;-63
2023/04/27 05:56:05;;;;;;;9.88;5.60;;;9.00;76.20;;;;;;4997445;28;20034;-64
2023/04/27 05:58:32;;;;;;;8.98;5.72;;;9.10;76.10;;;;;;4994621;28;20030;-63
2023/04/27 06:00:57;;;;;;;9.52;5.43;;;9.10;76.10;;;;;;4995429;28;20041;-64
2023/04/27 06:03:23;;;;;;;9.52;5.50;;;9.20;75.90;;;;;;4995467;28;20030;-63
2023/04/27 06:05:59;;;;;;;9.18;5.75;;;9.20;75.80;;;;;;4993789;28;20129;-63
2023/04/27 06:08:26;;;;;;;9.95;6.20;;;9.30;75.80;;;;;;4995329;28;20117;-64
2023/04/27 06:10:52;;;;;;;7.40;5.47;;;9.30;75.40;;;;;;5016915;28;20060;-63
2023/04/27 06:13:19;;;;;;;11.73;5.57;;;9.30;74.70;;;;;;5014829;28;20342;-64
2023/04/27 06:15:45;;;;;;;9.68;5.72;;;9.30;74.50;;;;;;5016915;28;20033;-64
2023/04/27 06:18:11;;;;;;;8.23;6.10;;;9.40;74.40;;;;;;5018328;28;20117;-63
2023/04/27 06:20:36;;;;;;;9.45;6.32;;;9.40;75.10;;;;;;5016946;28;20120;-64
2023/04/27 06:23:02;;;;;;;7.88;6.22;;;9.40;74.20;;;;;;5016423;28;20037;-63
2023/04/27 06:25:28;;;;;;;8.70;5.78;;;9.50;74.40;;;;;;5015226;28;20040;-63
2023/04/27 06:27:55;;;;;;;8.13;5.80;;;9.60;74.40;;;;;;5015773;28;20041;-63
2023/04/27 06:30:21;;;;;;;8.50;5.88;;;9.60;74.40;;;;;;5016717;28;20026;-63
2023/04/27 06:32:47;;;;;;;8.55;6.05;;;9.70;74.40;;;;;;5013669;28;25046;-64
2023/04/27 06:35:12;;;;;;;9.48;5.65;;;9.70;74.30;;;;;;5016115;28;20038;-63
2023/04/27 06:37:38;;;;;;;9.60;5.97;;;9.80;74.20;;;;;;5015715;28;20119;-63
2023/04/27 06:40:04;;;;;;;8.15;6.05;;;9.80;74.30;;;;;;5014614;28;20041;-63
2023/04/27 06:42:30;;;;;;;12.80;7.18;;;9.90;74.40;;;;;;5015306;28;20037;-64
2023/04/27 06:44:56;;;;;;;10.85;6.40;;;10.00;74.30;;;;;;5015313;28;20425;-64
2023/04/27 06:47:21;;;;;;;12.05;6.70;;;10.00;73.90;;;;;;5015420;28;20057;-63
2023/04/27 06:49:47;;;;;;;9.05;6.38;;;10.00;73.70;;;;;;5014295;28;20029;-64
2023/04/27 06:52:13;;;;;;;8.07;6.13;;;10.10;73.70;;;;;;5014574;28;20057;-63
2023/04/27 06:54:39;;;;;;;7.38;6.18;;;10.10;73.50;;;;;;5014098;28;20044;-64
2023/04/27 06:57:05;;;;;;;9.68;6.63;;;10.20;73.50;;;;;;5015541;28;20473;-64
2023/04/27 06:59:31;;;;;;;11.32;6.50;;;10.20;73.30;;;;;;5013803;28;20139;-63
2023/04/27 07:01:57;;;;;;;10.38;6.95;;;10.30;73.10;;;;;;5014518;28;20133;-62
2023/04/27 07:04:22;;;;;;;10.60;6.72;;;10.40;73.00;;;;;;5016103;28;20745;-63
2023/04/27 07:06:48;;;;;;;9.57;6.50;;;10.50;72.60;;;;;;5014801;28;20064;-63
2023/04/27 07:09:13;;;;;;;11.63;6.93;;;10.50;72.00;;;;;;5014355;28;20045;-63
2023/04/27 07:11:39;;;;;;;13.18;7.13;;;10.60;72.00;;;;;;5013802;28;20064;-63
2023/04/27 07:14:05;;;;;;;9.55;6.78;;;10.70;72.30;;;;;;5013747;28;20273;-63
2023/04/27 07:16:30;;;;;;;11.32;6.65;;;10.70;72.30;;;;;;5014496;28;20037;-65
2023/04/27 07:18:56;;;;;;;9.10;6.53;;;10.70;72.00;;;;;;5015206;28;20041;-63
2023/04/27 07:21:21;;;;;;;9.38;6.93;;;10.80;71.70;;;;;;5016579;28;20037;-64
2023/04/27 07:23:47;;;;;;;8.65;6.40;;;10.80;71.40;;;;;;5014419;28;20084;-63
2023/04/27 07:26:13;;;;;;;9.80;7.03;;;10.80;71.30;;;;;;5013511;28;20521;-64
2023/04/27 07:28:39;;;;;;;11.23;6.43;;;10.80;71.60;;;;;;5015326;28;20041;-64
2023/04/27 07:31:05;;;;;;;9.82;6.88;;;10.80;71.30;;;;;;5015573;28;20091;-63
2023/04/27 07:33:34;;;;;;;7.63;5.90;;;10.80;71.20;;;;;;5013133;28;20033;-64
2023/04/27 07:36:01;;;;;;;9.10;6.65;;;10.80;70.90;;;;;;5015124;28;20048;-63
2023/04/27 07:38:28;;;;;;;9.32;6.43;;;10.90;70.80;;;;;;5015541;28;20409;-63
2023/04/27 07:40:54;;;;;;;8.32;6.70;;;10.90;71.10;;;;;;5014744;28;20357;-62
2023/04/27 07:43:21;;;;;;;10.60;7.10;;;10.90;71.00;;;;;;5012543;28;20494;-64
2023/04/27 07:45:48;;;;;;;7.20;6.15;;;11.00;70.90;;;;;;5013911;28;20041;-63
2023/04/27 07:48:14;;;;;;;8.75;6.45;;;11.10;70.70;;;;;;5015438;28;20464;-63
2023/04/27 07:50:39;;;;;;;8.50;6.75;;;11.10;70.70;;;;;;5013808;28;20038;-64
2023/04/27 07:53:05;;;;;;;9.02;6.88;;;11.20;70.90;;;;;;5012634;28;20046;-64
2023/04/27 07:55:30;;;;;;;12.13;7.18;;;11.30;70.80;;;;;;5013239;28;20061;-64
2023/04/27 07:57:56;;;;;;;10.05;6.70;;;11.40;70.60;;;;;;5013641;28;20064;-63
2023/04/27 08:00:24;;;;;;;10.43;6.72;;;11.50;70.70;;;;;;5014264;28;20030;-64
2023/04/27 08:02:52;;;;;;;9.63;6.80;;;11.60;70.70;;;;;;5007804;28;20087;-63
2023/04/27 08:05:17;;;;;;;9.32;6.93;;;11.70;70.60;;;;;;5014877;28;20155;-63
2023/04/27 08:07:43;;;;;;;7.45;6.30;;;11.70;70.60;;;;;;5015094;28;20033;-62
2023/04/27 08:10:09;;;;;;;9.23;6.60;;;11.80;70.50;;;;;;5013920;28;20746;-64
2023/04/27 08:12:35;;;;;;;9.60;6.53;;;11.90;70.20;;;;;;5013599;28;20580;-63
2023/04/27 08:15:00;;;;;;;10.07;6.38;;;12.00;70.20;;;;;;5012338;28;20917;-64
2023/04/27 08:17:26;;;;;;;9.60;6.50;;;12.10;70.40;;;;;;5010791;28;20041;-64
2023/04/27 08:19:52;;;;;;;8.88;6.38;;;12.30;70.40;;;;;;5014647;28;20382;-64
2023/04/27 08:22:17;;;;;;;10.10;6.45;;;12.30;70.20;;;;;;5014238;28;21060;-63
2023/04/27 08:24:43;;;;;;;7.22;6.00;;;12.50;70.00;;;;;;5014646;28;20440;-63
2023/04/27 08:27:08;;;;;;;10.57;6.22;;;12.60;69.90;;;;;;5013739;28;20037;-63
2023/04/27 08:29:34;;;;;;;10.35;6.25;;;12.70;69.70;;;;;;5014979;28;20029;-63
2023/04/27 08:32:01;;;;;;;9.45;5.80;;;12.80;69.60;;;;;;5014062;28;20030;-63
2023/04/27 08:34:28;;;;;;;7.18;5.57;;;12.90;69.00;;;;;;5012427;28;20042;-64
2023/04/27 08:36:54;;;;;;;6.65;5.45;;;13.00;68.60;;;;;;5013795;28;20030;-63
2023/04/27 08:39:20;;;;;;;6.07;5.25;;;13.00;67.90;;;;;;5015065;28;20167;-63
2023/04/27 08:41:46;;;;;;;7.20;5.30;;;13.10;67.30;;;;;;5013397;28;20080;-62
2023/04/27 08:44:11;;;;;;;6.57;5.30;;;13.20;66.90;;;;;;5015884;28;20717;-64
2023/04/27 08:46:37;;;;;;;9.90;5.55;;;13.20;66.70;;;;;;5013271;28;20029;-62
2023/04/27 08:49:03;;;;;;;10.13;5.43;;;13.20;66.70;;;;;;5013782;28;20094;-64
2023/04/27 08:51:31;;;;;;;7.25;5.22;;;13.30;67.10;;;;;;5015695;28;20041;-62
2023/04/27 08:53:57;;;;;;;6.90;5.10;;;13.40;67.20;;;;;;5012737;28;20044;-63
2023/04/27 08:56:24;;;;;;;7.10;5.13;;;13.50;67.40;;;;;;5020305;28;20033;-63
2023/04/27 08:58:55;;;;;;;8.90;5.20;;;13.60;67.40;;;;;;5020186;28;20490;-62
2023/04/27 09:01:22;;;;;;;9.07;5.32;;;13.70;67.10;;;;;;5019570;28;20030;-62
2023/04/27 09:03:48;;;;;;;4.60;4.20;;;13.80;66.80;;;;;;5019625;28;20964;-63
2023/04/27 09:06:14;;;;;;;5.90;4.28;;;13.90;66.70;;;;;;5019554;28;20607;-64
2023/04/27 09:08:50;;;;;;;6.07;4.55;;;14.00;66.70;;;;;;5021738;28;20029;-63
2023/04/27 09:11:31;;;;;;;4.63;4.22;;;14.10;66.10;;;;;;5021895;28;20437;-63
2023/04/27 09:13:59;;;;;;;6.50;4.50;;;14.10;66.10;;;;;;5021487;28;20041;-61
2023/04/27 09:16:27;;;;;;;6.72;4.40;;;14.30;66.20;;;;;;5017841;28;20405;-63
2023/04/27 09:18:53;;;;;;;6.80;4.82;;;14.30;65.70;;;;;;5000720;28;20105;-63
2023/04/27 09:21:27;;;;;;;6.13;4.47;;;14.40;65.80;;;;;;4996495;28;20573;-63
2023/04/27 09:23:54;;;;;;;7.22;4.70;;;14.60;65.30;;;;;;4997010;28;20129;-63
2023/04/27 09:26:23;;;;;;;5.35;4.65;;;14.60;65.80;;;;;;5001255;28;20030;-64
2023/04/27 09:28:50;;;;;;;5.43;4.40;;;14.80;65.50;;;;;;5001872;28;20184;-63
2023/04/27 09:31:16;;;;;;;6.63;4.68;;;14.80;65.00;;;;;;4999759;28;20070;-64
2023/04/27 09:33:44;;;;;;;7.32;4.75;;;14.90;64.70;;;;;;5000800;28;20121;-64
2023/04/27 09:36:10;;;;;;;10.18;4.78;;;15.10;64.60;;;;;;5001309;28;20041;-64
2023/04/27 09:38:36;;;;;;;7.60;4.65;;;15.20;64.40;;;;;;5002782;28;20041;-63
2023/04/27 09:41:02;;;;;;;9.90;4.90;;;15.30;63.90;;;;;;4999659;28;20029;-64
2023/04/27 09:43:30;;;;;;;5.65;4.32;;;15.40;63.40;;;;;;5001568;28;20034;-63
2023/04/27 09:45:57;;;;;;;6.53;4.82;;;15.40;63.00;;;;;;5001579;28;20122;-63
2023/04/27 09:48:24;;;;;;;5.65;5.00;;;15.50;62.20;;;;;;5002946;28;20524;-63
2023/04/27 09:50:51;;;;;;;7.85;4.65;;;15.50;62.70;;;;;;5001753;28;20034;-63
2023/04/27 09:53:22;;;;;;;7.55;5.00;;;15.50;62.70;;;;;;4999976;28;20384;-63
2023/04/27 09:56:07;;;;;;;5.03;4.30;;;15.50;62.20;;;;;;5001659;28;20084;-63
2023/04/27 09:58:57;;;;;;;4.88;4.18;;;15.50;62.60;;;;;;5002263;28;20386;-64
2023/04/27 10:01:46;;;;;;;5.47;4.25;;;15.60;61.80;;;;;;4999593;28;20397;-64
2023/04/27 10:04:29;;;;;;;6.35;4.68;;;15.60;61.60;;;;;;4997517;28;20068;-64
2023/04/27 10:07:00;;;;;;;5.43;4.03;;;15.70;62.90;;;;;;4994613;28;20050;-63
2023/04/27 10:09:54;;;;;;;4.45;3.75;;;15.80;62.20;;;;;;4997562;28;20104;-64
2023/04/27 10:12:35;;;;;;;7.88;4.30;;;15.80;62.00;;;;;;4996264;28;20041;-63
2023/04/27 10:15:11;;;;;;;4.90;3.83;;;15.80;60.70;;;;;;4997391;28;20603;-63
2023/04/27 10:17:37;;;;;;;6.45;3.90;;;15.90;60.40;;;;;;4997969;28;20133;-63
2023/04/27 10:20:08;;;;;;;5.55;3.97;;;15.90;60.50;;;;;;4998548;28;20153;-64
2023/04/27 10:22:45;;;;;;;5.90;3.78;;;15.90;60.10;;;;;;4996029;28;20030;-62
2023/04/27 10:25:23;;;;;;;7.20;3.78;;;15.90;59.80;;;;;;4998330;28;20057;-63
2023/04/27 10:27:55;;;;;;;5.28;3.95;;;15.90;59.60;;;;;;4998233;28;20081;-63
2023/04/27 10:30:23;;;;;;;3.50;3.20;;;15.80;59.30;;;;;;4998560;28;20382;-63
2023/04/27 10:32:54;;;;;;;5.72;2.90;;;15.80;59.80;;;;;;4995982;28;20049;-63
2023/04/27 10:35:21;;;;;;;3.97;3.08;;;15.80;60.00;;;;;;4996695;28;20069;-63
2023/04/27 10:37:47;;;;;;;3.70;2.88;;;15.90;59.60;;;;;;4997306;28;20045;-63
2023/04/27 10:40:14;;;;;;;5.75;3.17;;;15.90;58.60;;;;;;4996652;28;20042;-62
2023/04/27 10:42:44;;;;;;;5.28;3.13;;;15.90;58.60;;;;;;4994355;28;20398;-63
2023/04/27 10:45:11;;;;;;;3.60;2.80;;;15.90;58.00;;;;;;4996117;28;20040;-61
2023/04/27 10:47:42;;;;;;;3.42;2.60;;;15.90;58.70;;;;;;4996589;28;20076;-63
2023/04/27 10:50:14;;;;;;;2.90;2.50;;;16.00;58.60;;;;;;4997187;28;20046;-63
2023/04/27 10:52:45;;;;;;;5.38;3.00;;;16.00;59.10;;;;;;4997536;28;20537;-63
2023/04/27 10:55:19;;;;;;;4.22;2.47;;;16.10;59.30;;;;;;4997457;28;20192;-63
2023/04/27 10:57:52;;;;;;;3.42;2.83;;;16.20;59.00;;;;;;4996960;28;21045;-63
2023/04/27 11:00:29;;;;;;;3.33;2.63;;;16.40;58.90;;;;;;4996345;28;20045;-62
2023/04/27 11:02:57;;;;;;;5.22;2.67;;;16.50;58.20;;;;;;4993384;28;20070;-63
2023/04/27 11:05:28;;;;;;;3.75;2.80;;;16.50;58.10;;;;;;4996909;28;20092;-63
2023/04/27 11:08:07;;;;;;;2.95;2.63;;;16.60;58.00;;;;;;4995369;28;20134;-63
2023/04/27 11:10:34;;;;;;;3.80;3.00;;;16.60;56.90;;;;;;4995571;28;20494;-63
2023/04/27 11:13:15;;;;;;;5.68;2.85;;;16.60;57.50;;;;;;4995139;28;21024;-63
2023/04/27 11:16:03;;;;;;;3.22;2.53;;;16.60;57.50;;;;;;4995573;28;20038;-63
2023/04/27 11:18:31;;;;;;;4.55;2.78;;;16.80;57.80;;;;;;4994439;28;20034;-63
2023/04/27 11:21:11;;;;;;;5.22;3.00;;;16.80;58.30;;;;;;4996821;28;20342;-63
2023/04/27 11:23:37;;;;;;;4.75;2.63;;;16.80;57.30;;;;;;4996040;28;20036;-63
2023/04/27 11:26:13;;;;;;;3.53;2.45;;;16.90;57.90;;;;;;4999547;28;20412;-63
2023/04/27 11:28:39;;;;;;;2.47;2.28;;;17.00;57.50;;;;;;4996114;28;20092;-64
2023/04/27 11:31:06;;;;;;;3.67;2.40;;;17.00;57.40;;;;;;4993605;28;20740;-63
2023/04/27 11:33:32;;;;;;;5.68;2.50;;;17.10;57.30;;;;;;4990228;28;20041;-63
2023/04/27 11:35:58;;;;;;;3.00;2.70;;;17.10;57.70;;;;;;4996721;28;20038;-62
2023/04/27 11:38:25;;;;;;;3.40;2.42;;;17.20;57.80;;;;;;4991447;28;20125;-62
2023/04/27 11:41:02;;;;;;;2.80;2.33;;;17.20;57.70;;;;;;4991938;28;20042;-63
2023/04/27 11:43:28;;;;;;;4.78;2.25;;;17.30;56.90;;;;;;4992117;28;20040;-63
2023/04/27 11:45:55;;;;;;;4.93;2.80;;;17.30;57.10;;;;;;4994762;28;20414;-63
2023/04/27 11:48:22;;;;;;;5.57;2.15;;;17.40;57.00;;;;;;4998353;28;20124;-63
2023/04/27 11:50:50;;;;;;;3.63;2.22;;;17.40;57.20;;;;;;4994822;28;20042;-63
2023/04/27 11:53:16;;;;;;;2.60;2.13;;;17.50;57.50;;;;;;4995097;28;20104;-63
2023/04/27 11:55:42;;;;;;;4.85;2.22;;;17.50;57.50;;;;;;4995161;28;20497;-63
2023/04/27 11:58:15;;;;;;;2.85;2.38;;;17.60;57.60;;;;;;4996132;28;20034;-63
2023/04/27 12:00:41;;;;;;;2.45;2.20;;;17.70;57.00;;;;;;4994745;28;20053;-63
2023/04/27 12:03:07;;;;;;;5.90;2.45;;;17.80;57.50;;;;;;4994360;28;20238;-63
2023/04/27 12:05:33;;;;;;;2.83;2.05;;;17.80;57.10;;;;;;4994243;28;20136;-63
2023/04/27 12:07:59;;;;;;;2.97;2.20;;;17.90;56.80;;;;;;4993431;28;20162;-63
2023/04/27 12:10:24;;;;;;;3.00;2.47;;;18.00;56.70;;;;;;4999559;28;20529;-63
2023/04/27 12:12:50;;;;;;;4.05;2.28;;;18.00;56.30;;;;;;5012366;28;20084;-63
2023/04/27 12:15:15;;;;;;;3.83;2.40;;;18.00;56.20;;;;;;5010818;28;20045;-62
2023/04/27 12:17:41;;;;;;;3.08;2.20;;;18.10;55.80;;;;;;5012261;28;20116;-62
2023/04/27 12:20:07;;;;;;;3.50;2.60;;;18.10;55.20;;;;;;5013921;28;20041;-62
2023/04/27 12:22:33;;;;;;;3.78;2.38;;;18.10;55.50;;;;;;5013734;28;20088;-63
2023/04/27 12:24:59;;;;;;;3.63;2.03;;;18.10;55.00;;;;;;5012506;28;20409;-63
2023/04/27 12:27:25;;;;;;;4.47;2.40;;;18.10;55.30;;;;;;5015850;28;20447;-63
2023/04/27 12:29:53;;;;;;;4.53;2.20;;;18.10;54.90;;;;;;5012783;28;20064;-63
2023/04/27 12:32:18;;;;;;;2.22;1.80;;;18.00;55.10;;;;;;5012989;28;20041;-63
2023/04/27 12:34:45;;;;;;;2.78;1.77;;;17.90;54.60;;;;;;5014523;28;20580;-63
2023/04/27 12:37:10;;;;;;;3.00;2.33;;;18.10;54.90;;;;;;5015956;28;20036;-63
2023/04/27 12:39:36;;;;;;;4.78;2.05;;;18.00;54.50;;;;;;5015172;28;20026;-62
2023/04/27 12:42:02;;;;;;;2.35;2.08;;;18.00;54.70;;;;;;5013855;28;20582;-63
2023/04/27 12:44:28;;;;;;;4.07;2.35;;;18.00;55.20;;;;;;5015755;28;20025;-63
2023/04/27 12:46:54;;;;;;;3.72;2.13;;;18.00;54.80;;;;;;5014128;28;20048;-63
2023/04/27 12:49:20;;;;;;;2.60;2.10;;;18.00;54.90;;;;;;5015758;28;20038;-63